Terminal Aerodrome Forecast
Issued by NWS

Home | Current Version | Previous Version | Text Only | Print | Product List | Glossary On
Versions: 1 2 3 4 5 6 7 8 9 10 11 12 13
000
FTUS45 KRIW 031100
TAFRKS
TAF
KRKS 031137Z 0312/0412 VRB06KT P6SM BKN100
     FM031900 25010G15KT P6SM VCSH SCT070 BKN100
     FM032100 VRB15G30KT P6SM VCTS SCT050CB BKN090
     FM040300 VRB06KT P6SM SCT100 BKN250
     FM040600 09007KT P6SM SCT100=

USA.gov is the U.S. government's official web portal to all federal, state and local government web resources and services.